Time;durP1;ratioP1;P1;durP2;ratioP2;P2;SDS_P1;SDS_P2;PMS_P1;PMS_P2;Temp;Humidity;BMP_temperature;BMP_pressure;BME280_temperature;BME280_humidity;BME280_pressure;Samples;Min_cycle;Max_cycle;Signal;HPM_P1;HPM_P2
2021/12/17 00:07:02;;;;;;;241.57;30.75;;;8.20;99.90;;;;;;5073191;28;20476;-89
2021/12/17 00:09:28;;;;;;;244.80;31.15;;;8.20;99.90;;;;;;5055785;28;20396;-89
2021/12/17 00:11:54;;;;;;;267.33;34.25;;;8.70;99.90;;;;;;5039281;28;20045;-89
2021/12/17 00:14:28;;;;;;;134.00;26.33;;;8.20;99.90;;;;;;5055911;28;20041;-88
2021/12/17 00:16:58;;;;;;;123.70;23.08;;;8.20;99.90;;;;;;5025086;28;20040;-88
2021/12/17 00:20:26;;;;;;;175.85;27.02;;;8.20;99.90;;;;;;5056586;28;20488;-89
2021/12/17 00:49:19;;;;;;;84.95;20.08;;;8.20;99.90;;;;;;5071551;28;20380;-90
2021/12/17 00:51:59;;;;;;;75.07;19.20;;;8.40;99.90;;;;;;5039448;28;20148;-89
2021/12/17 00:54:39;;;;;;;108.18;21.02;;;8.60;99.90;;;;;;5037508;28;20032;-90
2021/12/17 00:57:12;;;;;;;82.50;19.27;;;8.20;99.90;;;;;;5055183;28;20043;-89
2021/12/17 00:59:40;;;;;;;60.22;16.20;;;8.20;99.90;;;;;;5072235;28;20063;-89
2021/12/17 01:02:10;;;;;;;76.20;18.02;;;8.30;99.90;;;;;;5055526;28;20115;-89
2021/12/17 01:04:38;;;;;;;57.67;16.00;;;8.10;99.90;;;;;;5055255;28;20032;-89
2021/12/17 01:07:06;;;;;;;57.03;16.27;;;8.10;99.90;;;;;;5055826;28;20041;-89
2021/12/17 01:09:32;;;;;;;62.92;17.52;;;8.10;99.90;;;;;;5071564;28;20044;-89
2021/12/17 01:11:59;;;;;;;63.35;17.02;;;8.30;99.90;;;;;;5055409;28;20044;-89
2021/12/17 01:14:28;;;;;;;58.97;16.17;;;8.30;99.90;;;;;;5071498;28;20040;-89
2021/12/17 01:16:55;;;;;;;64.18;16.25;;;8.10;99.90;;;;;;5071341;28;20473;-89
2021/12/17 01:19:45;;;;;;;61.03;16.05;;;8.20;99.90;;;;;;5055028;28;20036;-87
2021/12/17 01:25:01;;;;;;;65.78;16.75;;;8.10;99.90;;;;;;5104859;28;19928;-89
2021/12/17 01:35:42;;;;;;;44.00;13.95;;;8.10;99.90;;;;;;5071346;28;20048;-89
2021/12/17 01:41:03;;;;;;;49.65;14.85;;;8.10;99.90;;;;;;5071204;28;20036;-88
2021/12/17 01:43:44;;;;;;;44.75;12.90;;;8.10;99.90;;;;;;5039905;28;20123;-89
2021/12/17 01:46:13;;;;;;;39.40;11.98;;;8.30;99.90;;;;;;5053746;28;20036;-89
2021/12/17 01:49:05;;;;;;;35.20;10.77;;;8.10;99.90;;;;;;5075603;28;20122;-89
2021/12/17 01:59:49;;;;;;;17.48;6.68;;;8.10;99.90;;;;;;5075511;28;20044;-89
2021/12/17 02:02:15;;;;;;;15.88;6.32;;;8.10;99.90;;;;;;5076304;28;20404;-89
2021/12/17 02:04:41;;;;;;;16.95;6.55;;;8.10;99.90;;;;;;5075746;28;20121;-89
2021/12/17 02:07:07;;;;;;;21.85;7.00;;;8.30;99.90;;;;;;5043025;28;20040;-90
2021/12/17 02:28:57;;;;;;;23.38;8.23;;;8.20;99.90;;;;;;5060649;28;20082;-90
2021/12/17 02:33:52;;;;;;;27.92;9.20;;;8.10;99.90;;;;;;5074843;28;20120;-89
2021/12/17 02:36:23;;;;;;;40.28;10.50;;;8.20;99.90;;;;;;5041739;28;20032;-89
2021/12/17 02:38:49;;;;;;;37.97;11.10;;;8.20;99.90;;;;;;5026606;28;20068;-90
2021/12/17 02:46:43;;;;;;;51.80;11.57;;;8.10;99.90;;;;;;5044425;28;20127;-89
2021/12/17 02:49:10;;;;;;;42.78;11.93;;;8.10;99.90;;;;;;5058153;28;20075;-89
2021/12/17 02:51:35;;;;;;;;;;;8.10;99.90;;;;;;5058196;28;20037;-89
2021/12/17 02:54:02;;;;;;;43.92;11.00;;;8.10;99.90;;;;;;5074540;28;20324;-90
2021/12/17 02:56:28;;;;;;;43.55;11.45;;;8.00;99.90;;;;;;5058385;28;20063;-90
2021/12/17 02:58:54;;;;;;;52.60;12.95;;;8.00;99.90;;;;;;5058223;28;20028;-89
2021/12/17 03:01:21;;;;;;;;;;;8.00;99.90;;;;;;5042093;28;20048;-89
2021/12/17 03:03:52;;;;;;;42.10;11.25;;;8.00;99.90;;;;;;5040996;28;19942;-89
2021/12/17 03:06:19;;;;;;;48.13;11.60;;;8.00;99.90;;;;;;5073289;28;20098;-89
2021/12/17 03:08:47;;;;;;;35.85;10.63;;;8.10;99.90;;;;;;5041575;28;20040;-90
2021/12/17 03:11:14;;;;;;;42.10;11.38;;;8.00;99.90;;;;;;5057652;28;20119;-90
2021/12/17 03:13:40;;;;;;;36.60;10.45;;;8.00;99.90;;;;;;5041019;28;20040;-90
2021/12/17 03:16:12;;;;;;;46.67;10.70;;;8.00;99.90;;;;;;5057343;28;20071;-89
2021/12/17 03:19:01;;;;;;;37.00;10.18;;;8.00;99.90;;;;;;5058242;28;20492;-89
2021/12/17 03:24:10;;;;;;;46.13;11.07;;;8.00;99.90;;;;;;5060218;28;20102;-90
2021/12/17 03:26:37;;;;;;;37.90;10.80;;;8.00;99.90;;;;;;5057806;28;20016;-89
2021/12/17 03:29:07;;;;;;;;;;;8.00;99.90;;;;;;5074383;28;20094;-90
2021/12/17 03:31:34;;;;;;;42.00;10.77;;;8.00;99.90;;;;;;5054984;28;19983;-91
2021/12/17 03:34:16;;;;;;;;;;;8.10;99.90;;;;;;5057990;28;20036;-90
2021/12/17 03:36:42;;;;;;;37.22;11.10;;;8.10;99.90;;;;;;5072038;28;19962;-89
2021/12/17 03:39:08;;;;;;;31.95;9.95;;;8.00;99.90;;;;;;5041081;28;20036;-90
2021/12/17 03:41:38;;;;;;;45.92;11.93;;;8.00;99.90;;;;;;5056938;28;20024;-90
2021/12/17 03:44:06;;;;;;;45.33;11.90;;;7.90;99.90;;;;;;5056991;28;20032;-89
2021/12/17 03:46:33;;;;;;;71.88;13.85;;;7.90;99.90;;;;;;5074190;28;20045;-90
2021/12/17 03:48:58;;;;;;;85.45;15.13;;;8.00;99.90;;;;;;5072513;28;20079;-89
2021/12/17 03:51:24;;;;;;;33.50;10.23;;;8.10;99.90;;;;;;5040672;28;20488;-90
2021/12/17 03:53:53;;;;;;;34.63;10.43;;;7.90;99.90;;;;;;5057615;28;20068;-90
2021/12/17 03:56:19;;;;;;;39.80;12.10;;;8.00;99.90;;;;;;5074330;28;20032;-90
2021/12/17 03:58:45;;;;;;;43.25;11.95;;;8.00;99.90;;;;;;5057038;28;20032;-90
2021/12/17 04:01:11;;;;;;;29.40;9.05;;;8.10;99.90;;;;;;5024436;28;20028;-90
2021/12/17 04:03:38;;;;;;;31.63;9.57;;;8.00;99.90;;;;;;5056687;28;20434;-90
2021/12/17 04:06:03;;;;;;;;;;;8.00;99.90;;;;;;5057591;28;20044;-90
2021/12/17 04:08:30;;;;;;;35.53;10.07;;;8.00;99.90;;;;;;5091326;28;19936;-90
2021/12/17 04:11:04;;;;;;;25.77;8.88;;;8.00;99.90;;;;;;5055314;28;20056;-89
2021/12/17 04:13:34;;;;;;;32.60;10.27;;;8.30;99.90;;;;;;5072855;28;20059;-89
2021/12/17 04:16:05;;;;;;;27.88;10.35;;;8.00;99.90;;;;;;5073101;28;20040;-89
2021/12/17 04:18:33;;;;;;;30.35;10.00;;;8.00;99.90;;;;;;5072451;28;20036;-89
2021/12/17 04:21:02;;;;;;;34.25;10.77;;;8.00;99.90;;;;;;5073551;28;20036;-89
2021/12/17 04:23:28;;;;;;;28.50;10.35;;;8.00;99.90;;;;;;5056415;28;20035;-90
2021/12/17 04:25:54;;;;;;;25.95;9.45;;;8.00;99.90;;;;;;5039010;28;20047;-90
2021/12/17 04:28:21;;;;;;;26.08;9.35;;;8.00;99.90;;;;;;5055967;28;20485;-90
2021/12/17 04:30:47;;;;;;;27.27;10.15;;;8.00;99.90;;;;;;5055526;28;20068;-91
2021/12/17 04:33:13;;;;;;;26.48;9.88;;;8.30;99.90;;;;;;5073244;28;20124;-90
2021/12/17 04:35:40;;;;;;;35.00;11.13;;;8.00;99.90;;;;;;5038395;28;20036;-89
2021/12/17 04:38:08;;;;;;;;;;;8.00;99.90;;;;;;5040255;28;20032;-90
2021/12/17 04:40:36;;;;;;;31.33;10.65;;;8.00;99.90;;;;;;5056360;28;19924;-91
2021/12/17 04:46:02;;;;;;;38.22;12.40;;;8.40;99.90;;;;;;5072644;28;20036;-90
2021/12/17 04:59:24;;;;;;;37.45;13.13;;;8.00;99.90;;;;;;5059377;28;20063;-91
2021/12/17 05:01:50;;;;;;;28.83;11.30;;;8.30;99.90;;;;;;5054842;28;20032;-91
2021/12/17 05:04:16;;;;;;;26.90;11.15;;;8.50;99.90;;;;;;5055820;28;20025;-91
2021/12/17 05:06:41;;;;;;;29.23;11.07;;;8.00;99.90;;;;;;5022321;28;20105;-90
2021/12/17 05:09:22;;;;;;;31.33;11.23;;;8.00;99.90;;;;;;5039354;28;20032;-90
2021/12/17 05:20:02;;;;;;;29.42;11.77;;;8.00;99.90;;;;;;5071590;28;20068;-88
2021/12/17 05:22:29;;;;;;;22.83;10.70;;;8.00;99.90;;;;;;5056748;28;20036;-87
2021/12/17 05:24:55;;;;;;;33.28;12.02;;;7.90;99.90;;;;;;5058432;28;20056;-88
2021/12/17 05:27:20;;;;;;;26.40;11.10;;;8.00;99.90;;;;;;5059215;28;20150;-90
2021/12/17 05:29:46;;;;;;;27.30;10.97;;;8.90;99.90;;;;;;5075375;28;20044;-86
2021/12/17 05:32:12;;;;;;;39.57;13.53;;;8.00;99.90;;;;;;5041444;28;20282;-86
2021/12/17 05:34:37;;;;;;;31.33;12.30;;;8.00;99.90;;;;;;5041250;28;20690;-86
2021/12/17 05:37:03;;;;;;;34.08;12.25;;;7.90;99.90;;;;;;5025759;28;20043;-85
2021/12/17 05:39:29;;;;;;;37.88;13.63;;;7.90;99.90;;;;;;5050529;28;20043;-88
2021/12/17 05:41:55;;;;;;;30.42;12.07;;;7.90;99.90;;;;;;5059070;28;20063;-88
2021/12/17 05:44:21;;;;;;;37.03;12.20;;;7.90;99.90;;;;;;5041547;28;20041;-86
2021/12/17 05:46:50;;;;;;;32.15;11.98;;;7.90;99.90;;;;;;5040715;28;20282;-86
2021/12/17 05:49:17;;;;;;;30.98;11.82;;;7.90;99.90;;;;;;5023392;28;20036;-87
2021/12/17 05:51:43;;;;;;;39.88;12.80;;;8.00;99.90;;;;;;5072155;28;20055;-85
2021/12/17 05:54:09;;;;;;;31.58;12.48;;;7.90;99.90;;;;;;5058420;28;20116;-87
2021/12/17 05:56:37;;;;;;;36.05;12.23;;;7.90;99.90;;;;;;5057729;28;20492;-87
2021/12/17 05:59:02;;;;;;;32.63;11.20;;;8.00;99.90;;;;;;5074169;28;20058;-87
2021/12/17 06:01:28;;;;;;;32.22;10.85;;;7.90;99.90;;;;;;5024770;28;20032;-87
2021/12/17 06:03:54;;;;;;;32.55;11.73;;;7.90;99.90;;;;;;5040106;28;21495;-87
2021/12/17 06:06:34;;;;;;;24.98;10.85;;;7.90;99.90;;;;;;5057685;28;20040;-86
2021/12/17 06:09:04;;;;;;;25.98;9.98;;;7.90;99.90;;;;;;5072921;28;20033;-87
2021/12/17 06:11:29;;;;;;;37.17;11.90;;;7.90;99.90;;;;;;5057658;28;20110;-87
2021/12/17 06:13:55;;;;;;;31.07;10.97;;;7.90;99.90;;;;;;5040033;28;20092;-86
2021/12/17 06:16:21;;;;;;;31.60;11.20;;;7.90;99.90;;;;;;5057573;28;20279;-87
2021/12/17 06:18:47;;;;;;;30.67;11.13;;;7.90;99.90;;;;;;5056835;28;20062;-87
2021/12/17 06:21:13;;;;;;;42.58;12.55;;;7.90;99.90;;;;;;5023774;28;20070;-87
2021/12/17 06:23:38;;;;;;;29.20;10.85;;;7.90;99.90;;;;;;5057933;28;20055;-87
2021/12/17 06:26:05;;;;;;;35.92;11.50;;;7.80;99.90;;;;;;5056780;28;20050;-87
2021/12/17 06:28:31;;;;;;;33.67;11.75;;;7.80;99.90;;;;;;5057613;28;20045;-87
2021/12/17 06:30:57;;;;;;;32.33;11.07;;;7.80;99.90;;;;;;5040091;28;20090;-87
2021/12/17 06:33:22;;;;;;;29.17;11.07;;;7.80;99.90;;;;;;5073482;28;20070;-87
2021/12/17 06:35:48;;;;;;;41.42;12.13;;;7.80;99.90;;;;;;5039895;28;20318;-86
2021/12/17 06:38:14;;;;;;;45.67;12.18;;;7.80;99.90;;;;;;5072540;28;20033;-88
2021/12/17 06:40:40;;;;;;;45.28;12.18;;;8.30;99.90;;;;;;5055835;28;20057;-86
2021/12/17 06:43:06;;;;;;;33.55;11.15;;;7.80;99.90;;;;;;5072545;28;20031;-85
2021/12/17 06:45:52;;;;;;;33.20;11.95;;;7.70;99.90;;;;;;5057114;28;20036;-88
2021/12/17 06:48:23;;;;;;;34.80;11.63;;;7.70;99.90;;;;;;5045903;28;20036;-87
2021/12/17 06:59:11;;;;;;;43.33;12.95;;;7.70;99.90;;;;;;5041806;28;20040;-88
2021/12/17 07:17:21;;;;;;;39.45;11.63;;;7.80;99.90;;;;;;5071596;28;20052;-87
2021/12/17 07:36:08;;;;;;;33.42;11.00;;;7.70;99.90;;;;;;5058525;28;20055;-87
2021/12/17 07:38:38;;;;;;;37.90;12.43;;;7.70;99.90;;;;;;5070565;28;20400;-84
2021/12/17 07:41:05;;;;;;;34.15;13.40;;;7.70;99.90;;;;;;5073235;28;20113;-85
2021/12/17 07:43:51;;;;;;;34.08;11.48;;;7.70;99.90;;;;;;5055593;28;20098;-85
2021/12/17 07:46:18;;;;;;;32.80;10.43;;;7.90;99.90;;;;;;5053619;28;20473;-85
2021/12/17 07:48:44;;;;;;;31.67;10.88;;;7.70;99.90;;;;;;5072325;28;20071;-84
2021/12/17 07:51:12;;;;;;;34.38;10.63;;;7.70;99.90;;;;;;5073664;28;20484;-89
2021/12/17 07:53:39;;;;;;;33.70;11.35;;;7.70;99.90;;;;;;5074972;28;20193;-89
2021/12/17 07:56:07;;;;;;;32.58;10.32;;;7.70;99.90;;;;;;5072744;28;20033;-89
2021/12/17 07:58:33;;;;;;;31.50;11.48;;;7.70;99.90;;;;;;5057504;28;20025;-89
2021/12/17 08:00:59;;;;;;;35.08;10.85;;;7.70;99.90;;;;;;5041529;28;20032;-89
2021/12/17 08:03:25;;;;;;;33.47;11.05;;;7.70;99.90;;;;;;5074227;28;20098;-89
2021/12/17 08:05:52;;;;;;;30.55;10.80;;;7.70;99.90;;;;;;5057663;28;20461;-89
2021/12/17 08:08:19;;;;;;;34.30;10.57;;;8.50;99.90;;;;;;5057351;28;20433;-90
2021/12/17 08:10:47;;;;;;;28.75;10.35;;;7.80;99.90;;;;;;5040994;28;20046;-89
2021/12/17 08:13:20;;;;;;;27.58;9.52;;;7.80;99.90;;;;;;5056732;28;20115;-89
2021/12/17 08:16:04;;;;;;;26.63;10.35;;;7.80;99.90;;;;;;5024788;28;20082;-89
2021/12/17 08:23:09;;;;;;;28.35;10.45;;;7.80;99.90;;;;;;5058297;28;20071;-89
2021/12/17 08:29:26;;;;;;;32.80;11.50;;;8.00;99.90;;;;;;5053806;28;20036;-83
2021/12/17 08:31:52;;;;;;;24.52;10.45;;;8.00;99.90;;;;;;5039089;28;20041;-83
2021/12/17 08:34:18;;;;;;;26.52;10.27;;;8.00;99.90;;;;;;5069910;28;20052;-83
2021/12/17 08:36:44;;;;;;;28.33;10.50;;;8.00;99.90;;;;;;5070192;28;20037;-83
2021/12/17 08:39:10;;;;;;;28.92;9.75;;;8.00;99.90;;;;;;5053865;28;20028;-83
2021/12/17 08:41:38;;;;;;;27.98;9.90;;;8.00;99.90;;;;;;5054403;28;20037;-83
2021/12/17 08:44:04;;;;;;;25.40;10.07;;;8.00;99.90;;;;;;5070442;28;20032;-83
2021/12/17 08:46:30;;;;;;;26.98;9.80;;;8.10;99.90;;;;;;5070571;28;20046;-83
2021/12/17 08:48:56;;;;;;;23.67;9.80;;;8.10;99.90;;;;;;5070146;28;20029;-83
2021/12/17 08:51:21;;;;;;;27.58;10.15;;;8.10;99.90;;;;;;5070820;28;20115;-83
2021/12/17 08:53:47;;;;;;;27.88;10.05;;;8.10;99.90;;;;;;5070342;28;20040;-83
2021/12/17 08:56:20;;;;;;;26.60;10.48;;;8.10;99.90;;;;;;5069289;28;20048;-83
2021/12/17 08:58:53;;;;;;;30.98;10.77;;;8.20;99.90;;;;;;5070358;28;20044;-83
2021/12/17 09:01:20;;;;;;;28.20;11.73;;;8.20;99.90;;;;;;5070519;28;20040;-83
2021/12/17 09:03:47;;;;;;;27.15;11.15;;;8.20;99.90;;;;;;5070600;28;20441;-83
2021/12/17 09:06:15;;;;;;;31.42;11.07;;;8.20;99.90;;;;;;5069807;28;20040;-83
2021/12/17 09:08:41;;;;;;;25.10;10.32;;;8.20;99.90;;;;;;5068689;28;20071;-83
2021/12/17 09:11:07;;;;;;;30.83;10.93;;;8.20;99.90;;;;;;5067644;28;20037;-83
2021/12/17 09:13:33;;;;;;;25.88;11.25;;;8.30;99.90;;;;;;5052542;28;20041;-83
2021/12/17 09:16:04;;;;;;;25.38;11.05;;;8.30;99.90;;;;;;5034485;28;20059;-83
2021/12/17 09:18:31;;;;;;;25.92;10.60;;;8.30;99.90;;;;;;5053195;28;20047;-82
2021/12/17 09:20:57;;;;;;;25.75;10.65;;;8.30;99.90;;;;;;5069563;28;20043;-83
2021/12/17 09:23:23;;;;;;;22.45;10.27;;;8.30;99.90;;;;;;5070325;28;20032;-83
2021/12/17 09:25:49;;;;;;;;;;;8.30;99.90;;;;;;5070132;28;20443;-83
2021/12/17 09:28:15;;;;;;;25.58;10.45;;;8.30;99.90;;;;;;5069139;28;19916;-82
2021/12/17 09:30:41;;;;;;;22.40;10.10;;;8.40;99.90;;;;;;5069093;28;20131;-83
2021/12/17 09:33:07;;;;;;;24.73;10.27;;;8.40;99.90;;;;;;5069185;28;20106;-83
2021/12/17 09:35:33;;;;;;;24.73;10.55;;;8.40;99.90;;;;;;5070181;28;20041;-83
2021/12/17 09:37:58;;;;;;;27.90;11.40;;;8.40;99.90;;;;;;5036386;28;20075;-83
2021/12/17 09:40:24;;;;;;;24.90;10.43;;;9.10;99.90;;;;;;5053008;28;20033;-82
2021/12/17 09:42:50;;;;;;;21.90;9.52;;;8.50;99.90;;;;;;5052270;28;20048;-81
2021/12/17 09:45:17;;;;;;;24.30;10.15;;;8.50;99.90;;;;;;5069344;28;20043;-80
2021/12/17 09:47:44;;;;;;;24.88;11.32;;;8.50;99.90;;;;;;5066438;28;20120;-81
2021/12/17 09:50:12;;;;;;;22.73;11.23;;;8.50;99.90;;;;;;5052345;28;20127;-81
2021/12/17 09:52:38;;;;;;;28.02;11.77;;;8.50;99.90;;;;;;5053149;28;20499;-82
2021/12/17 09:55:05;;;;;;;22.75;10.45;;;8.60;99.90;;;;;;5069043;28;20060;-81
2021/12/17 09:57:35;;;;;;;20.33;9.10;;;8.60;99.90;;;;;;5052448;28;20040;-81
2021/12/17 10:00:19;;;;;;;21.27;8.20;;;8.60;99.90;;;;;;5036434;28;20032;-81
2021/12/17 10:02:46;;;;;;;18.80;8.50;;;8.60;99.90;;;;;;5069063;28;20076;-82
2021/12/17 10:05:17;;;;;;;19.35;7.78;;;8.70;99.90;;;;;;5068740;28;20048;-81
2021/12/17 10:07:44;;;;;;;16.60;7.30;;;8.70;99.90;;;;;;5069460;28;20052;-80
2021/12/17 10:10:11;;;;;;;19.48;7.38;;;8.70;99.90;;;;;;5056059;28;20028;-80
2021/12/17 10:12:39;;;;;;;17.65;7.30;;;8.80;99.90;;;;;;5072910;28;20481;-82
2021/12/17 10:15:12;;;;;;;19.50;8.10;;;8.80;99.90;;;;;;5071329;28;20123;-82
2021/12/17 10:18:01;;;;;;;19.33;7.43;;;8.70;99.90;;;;;;5054164;28;20080;-81
2021/12/17 10:20:31;;;;;;;22.63;8.52;;;8.70;99.90;;;;;;5056205;28;20086;-80
2021/12/17 10:22:59;;;;;;;15.73;7.93;;;8.80;99.90;;;;;;5072617;28;20040;-80
2021/12/17 10:25:27;;;;;;;21.92;8.63;;;8.80;99.90;;;;;;5069774;28;20066;-81
2021/12/17 10:27:59;;;;;;;19.58;8.38;;;8.70;99.90;;;;;;5072655;28;20036;-80
2021/12/17 10:30:27;;;;;;;19.27;8.10;;;8.80;99.90;;;;;;5056069;28;20040;-83
2021/12/17 10:32:55;;;;;;;21.38;8.27;;;9.20;99.90;;;;;;5072894;28;20103;-82
2021/12/17 10:35:27;;;;;;;17.08;7.55;;;8.80;99.90;;;;;;5056073;28;20048;-82
2021/12/17 10:37:59;;;;;;;18.98;7.45;;;8.80;99.90;;;;;;5073190;28;20049;-82
2021/12/17 10:40:31;;;;;;;21.83;8.10;;;8.80;99.90;;;;;;5072586;28;20048;-81
2021/12/17 10:43:40;;;;;;;19.15;7.20;;;8.90;99.90;;;;;;5071102;28;20037;-81
2021/12/17 10:46:26;;;;;;;16.38;7.45;;;8.90;99.90;;;;;;5070759;28;20449;-82
2021/12/17 10:49:12;;;;;;;25.98;8.85;;;8.90;99.90;;;;;;5072217;28;20040;-81
2021/12/17 10:54:15;;;;;;;21.77;7.97;;;8.90;99.90;;;;;;5071861;28;20051;-81
2021/12/17 10:56:52;;;;;;;19.33;7.20;;;8.90;99.90;;;;;;5071051;28;20080;-82
2021/12/17 10:59:19;;;;;;;15.07;6.95;;;8.90;99.90;;;;;;5055560;28;20032;-82
2021/12/17 11:01:46;;;;;;;18.02;7.15;;;9.00;99.90;;;;;;5072514;28;20535;-81
2021/12/17 11:04:18;;;;;;;14.07;7.55;;;9.00;99.90;;;;;;5072277;28;20032;-81
2021/12/17 11:06:45;;;;;;;15.75;7.28;;;9.00;99.90;;;;;;5071114;28;20055;-82
2021/12/17 11:09:11;;;;;;;16.05;7.05;;;9.00;99.90;;;;;;5072677;28;20032;-82
2021/12/17 11:11:42;;;;;;;16.02;6.32;;;9.00;99.90;;;;;;5072983;28;20115;-82
2021/12/17 11:14:08;;;;;;;14.73;6.50;;;9.10;99.90;;;;;;5072070;28;20086;-82
2021/12/17 11:16:39;;;;;;;12.40;6.57;;;9.20;99.90;;;;;;5072225;28;20131;-82
2021/12/17 11:19:05;;;;;;;14.35;6.57;;;9.10;99.90;;;;;;5071817;28;20047;-82
2021/12/17 11:21:32;;;;;;;13.18;6.05;;;9.20;99.90;;;;;;5055054;28;20040;-81
2021/12/17 11:24:00;;;;;;;10.93;5.78;;;9.10;99.90;;;;;;5055424;28;20036;-82
2021/12/17 11:26:27;;;;;;;12.98;5.57;;;9.10;99.90;;;;;;5054615;28;20032;-82
2021/12/17 11:29:00;;;;;;;11.18;5.97;;;9.20;99.90;;;;;;5071503;28;20115;-82
2021/12/17 11:31:27;;;;;;;13.55;5.78;;;9.20;99.90;;;;;;5070712;28;20042;-83
2021/12/17 11:33:53;;;;;;;;;;;9.20;99.90;;;;;;5052627;28;20040;-82
2021/12/17 11:36:18;;;;;;;7.75;4.88;;;9.20;99.90;;;;;;5054907;28;19974;-83
2021/12/17 11:39:09;;;;;;;9.68;4.70;;;9.20;99.90;;;;;;5054937;28;20028;-83
2021/12/17 11:41:50;;;;;;;7.63;4.70;;;9.20;99.90;;;;;;5070093;28;20230;-83
2021/12/17 11:44:19;;;;;;;7.15;4.10;;;9.20;99.90;;;;;;5068796;28;20066;-83
2021/12/17 11:47:03;;;;;;;8.25;4.30;;;9.20;99.90;;;;;;5069858;28;20075;-83
2021/12/17 11:49:35;;;;;;;8.50;4.60;;;9.20;99.90;;;;;;5070592;28;20127;-83
2021/12/17 11:52:01;;;;;;;7.35;4.30;;;9.20;99.90;;;;;;5064238;28;20048;-83
2021/12/17 11:54:32;;;;;;;9.07;4.63;;;9.30;99.90;;;;;;5071504;28;20045;-83
2021/12/17 11:57:13;;;;;;;8.30;4.40;;;9.20;99.90;;;;;;5071380;28;20039;-82
2021/12/17 11:59:42;;;;;;;8.35;4.00;;;9.20;99.90;;;;;;5072095;28;20071;-83
2021/12/17 12:02:16;;;;;;;7.85;4.47;;;9.20;99.90;;;;;;5071422;28;20028;-82
2021/12/17 12:04:54;;;;;;;10.35;4.50;;;9.30;99.90;;;;;;5071052;28;20047;-83
2021/12/17 12:07:25;;;;;;;12.35;4.55;;;9.30;99.90;;;;;;5071234;28;20062;-83
2021/12/17 12:09:57;;;;;;;8.10;4.30;;;9.30;99.90;;;;;;5069179;28;20051;-82
2021/12/17 12:12:46;;;;;;;7.32;4.32;;;9.20;99.90;;;;;;5070851;28;20040;-83
2021/12/17 12:15:20;;;;;;;7.95;4.70;;;9.30;99.90;;;;;;5069857;28;20404;-83
2021/12/17 12:18:06;;;;;;;9.55;5.10;;;9.20;99.90;;;;;;5068868;28;20047;-83
2021/12/17 12:20:45;;;;;;;7.00;4.32;;;9.20;99.90;;;;;;5069826;28;20068;-82
2021/12/17 12:23:20;;;;;;;7.53;4.22;;;9.20;99.90;;;;;;5069235;28;20044;-83
2021/12/17 12:26:11;;;;;;;7.00;4.10;;;9.20;99.90;;;;;;5054411;28;20048;-82
2021/12/17 12:28:46;;;;;;;8.77;4.20;;;9.20;99.90;;;;;;5054112;28;20127;-83
2021/12/17 12:31:31;;;;;;;8.23;3.97;;;9.20;99.90;;;;;;5070538;28;20032;-83
2021/12/17 12:34:03;;;;;;;7.15;4.07;;;9.20;99.90;;;;;;5070139;28;20056;-83
2021/12/17 12:36:50;;;;;;;7.57;4.45;;;9.30;99.90;;;;;;5065759;28;20032;-83
2021/12/17 12:39:30;;;;;;;7.57;3.97;;;9.30;99.90;;;;;;5066713;28;20119;-83
2021/12/17 12:41:56;;;;;;;7.68;4.60;;;9.30;99.90;;;;;;5070920;28;20370;-83
2021/12/17 12:44:42;;;;;;;7.90;4.50;;;9.30;99.90;;;;;;5070913;28;20059;-83
2021/12/17 12:47:35;;;;;;;8.15;4.43;;;9.30;99.90;;;;;;5063285;28;20048;-83
2021/12/17 12:50:04;;;;;;;8.43;4.35;;;9.30;99.90;;;;;;5069877;28;20044;-83
2021/12/17 12:52:40;;;;;;;8.02;4.70;;;9.30;99.90;;;;;;5070669;28;20036;-84
2021/12/17 12:55:27;;;;;;;8.30;4.47;;;9.30;99.90;;;;;;5070493;28;20090;-83
2021/12/17 12:57:59;;;;;;;9.23;4.75;;;9.30;99.90;;;;;;5068053;28;20040;-83
2021/12/17 13:00:28;;;;;;;6.45;4.45;;;9.30;99.90;;;;;;5070408;28;20037;-83
2021/12/17 13:03:06;;;;;;;8.40;4.25;;;9.30;99.90;;;;;;5070282;28;20029;-83
2021/12/17 13:05:33;;;;;;;7.38;4.90;;;9.30;99.90;;;;;;5068422;28;20070;-83
2021/12/17 13:08:02;;;;;;;9.38;4.90;;;9.30;99.90;;;;;;5069977;28;20047;-82
2021/12/17 13:10:31;;;;;;;8.63;4.68;;;9.30;99.90;;;;;;5070657;28;20465;-82
2021/12/17 13:13:03;;;;;;;9.80;5.25;;;9.30;99.90;;;;;;5070341;28;20056;-82
2021/12/17 13:24:13;;;;;;;6.93;4.57;;;9.30;99.90;;;;;;5051933;28;20037;-82
2021/12/17 13:26:46;;;;;;;7.57;4.45;;;9.40;99.90;;;;;;5068784;28;20972;-81
2021/12/17 13:29:34;;;;;;;6.20;4.15;;;9.30;99.90;;;;;;5069988;28;20098;-83
2021/12/17 13:32:02;;;;;;;;;;;9.30;99.90;;;;;;5068526;28;20040;-82
2021/12/17 13:34:34;;;;;;;8.35;4.70;;;9.30;99.90;;;;;;5070382;28;20228;-82
2021/12/17 13:37:12;;;;;;;8.23;4.45;;;9.30;99.90;;;;;;5071331;28;20364;-82
2021/12/17 13:39:45;;;;;;;8.02;4.47;;;9.40;99.90;;;;;;5072146;28;20053;-82
2021/12/17 13:42:19;;;;;;;9.07;4.40;;;9.30;99.90;;;;;;5071039;28;20045;-82
2021/12/17 13:44:46;;;;;;;9.82;4.65;;;9.30;99.90;;;;;;5089110;28;20341;-82
2021/12/17 13:47:17;;;;;;;6.53;3.92;;;9.30;99.90;;;;;;5074584;28;20075;-83
2021/12/17 13:49:50;;;;;;;7.60;4.10;;;9.30;99.90;;;;;;5075134;28;20127;-82
2021/12/17 13:52:17;;;;;;;6.85;4.47;;;9.30;99.90;;;;;;5074975;28;20038;-83
2021/12/17 13:54:48;;;;;;;7.43;4.70;;;9.30;99.90;;;;;;5054879;28;20111;-82
2021/12/17 13:57:19;;;;;;;8.30;4.13;;;9.30;99.90;;;;;;5073825;28;20044;-83
2021/12/17 13:59:46;;;;;;;7.43;3.83;;;9.30;99.90;;;;;;5073504;28;20036;-83
2021/12/17 14:02:15;;;;;;;7.07;4.13;;;9.40;99.90;;;;;;5074301;28;20043;-82
2021/12/17 14:04:42;;;;;;;9.02;4.55;;;9.30;99.90;;;;;;5073898;28;20587;-81
2021/12/17 14:07:10;;;;;;;6.32;4.30;;;9.30;99.90;;;;;;5054086;28;20114;-80
2021/12/17 14:09:36;;;;;;;6.85;4.35;;;9.40;99.90;;;;;;5072978;28;20072;-81
2021/12/17 14:12:25;;;;;;;;;;;9.40;99.90;;;;;;5073501;28;20045;-81
2021/12/17 14:15:04;;;;;;;7.82;4.20;;;9.40;99.90;;;;;;5106731;28;20299;-81
2021/12/17 14:17:44;;;;;;;6.18;4.28;;;9.40;99.90;;;;;;5072119;28;20508;-81
2021/12/17 14:20:22;;;;;;;6.85;4.53;;;9.30;99.90;;;;;;5069268;28;20045;-82
2021/12/17 14:22:50;;;;;;;8.70;4.50;;;9.30;99.90;;;;;;5074073;28;20559;-82
2021/12/17 14:25:33;;;;;;;7.65;4.75;;;9.30;99.90;;;;;;5049867;28;20062;-81
2021/12/17 14:28:08;;;;;;;7.25;4.90;;;9.30;99.90;;;;;;5073547;28;20089;-82
2021/12/17 14:30:34;;;;;;;6.22;4.40;;;9.40;99.90;;;;;;5073372;28;20082;-82
2021/12/17 14:33:06;;;;;;;6.82;4.40;;;9.30;99.90;;;;;;5057192;28;20423;-81
2021/12/17 14:35:50;;;;;;;8.10;4.68;;;9.40;99.90;;;;;;5073375;28;20508;-84
2021/12/17 14:38:19;;;;;;;8.45;4.80;;;9.30;99.90;;;;;;5073018;28;20443;-82
2021/12/17 14:40:59;;;;;;;8.32;4.82;;;9.40;99.90;;;;;;5070780;28;20492;-82
2021/12/17 14:43:35;;;;;;;8.15;4.50;;;9.40;99.90;;;;;;5056841;28;20112;-82
2021/12/17 14:46:18;;;;;;;8.75;5.50;;;9.30;99.90;;;;;;5071785;28;20059;-81
2021/12/17 14:49:10;;;;;;;7.20;4.75;;;9.30;99.90;;;;;;5070869;28;20040;-82
2021/12/17 15:02:44;;;;;;;8.85;5.22;;;9.30;99.90;;;;;;5071712;28;20404;-83
2021/12/17 15:05:09;;;;;;;8.57;5.63;;;9.20;99.90;;;;;;5073180;28;20053;-83
2021/12/17 15:07:35;;;;;;;10.73;5.75;;;9.30;99.90;;;;;;5072680;28;20036;-83
2021/12/17 15:10:03;;;;;;;8.10;5.70;;;9.20;99.90;;;;;;5054732;28;20480;-82
2021/12/17 15:14:59;;;;;;;8.48;5.70;;;9.30;99.90;;;;;;5071297;28;20127;-82
2021/12/17 15:17:24;;;;;;;;;;;9.30;99.90;;;;;;5071126;28;20044;-83
2021/12/17 15:19:51;;;;;;;11.23;5.90;;;9.20;99.90;;;;;;5070860;28;19927;-81
2021/12/17 15:22:16;;;;;;;9.80;6.10;;;9.20;99.90;;;;;;5071492;28;20040;-84
2021/12/17 15:24:42;;;;;;;9.20;5.90;;;9.30;99.90;;;;;;5055812;28;20170;-83
2021/12/17 15:27:08;;;;;;;8.50;5.35;;;9.20;99.90;;;;;;5072830;28;20037;-84
2021/12/17 15:29:34;;;;;;;8.75;5.75;;;9.20;99.90;;;;;;5056002;28;20089;-83
2021/12/17 15:32:00;;;;;;;9.80;6.07;;;9.20;99.90;;;;;;5055311;28;20032;-82
2021/12/17 15:34:26;;;;;;;10.27;6.13;;;9.20;99.90;;;;;;5072033;28;20449;-83
2021/12/17 15:36:53;;;;;;;9.30;5.88;;;9.20;99.90;;;;;;5072194;28;20040;-83
2021/12/17 15:39:18;;;;;;;13.60;6.82;;;9.20;99.90;;;;;;5071892;28;20040;-83
2021/12/17 15:41:44;;;;;;;13.57;6.63;;;9.20;99.90;;;;;;5054939;28;20059;-83
2021/12/17 15:44:11;;;;;;;9.30;6.13;;;9.20;99.90;;;;;;5072424;28;20361;-81
2021/12/17 15:46:37;;;;;;;9.70;5.95;;;9.10;99.90;;;;;;5071558;28;20024;-82
2021/12/17 15:49:05;;;;;;;;;;;9.20;99.90;;;;;;5055424;28;20085;-81
2021/12/17 15:51:31;;;;;;;9.80;5.82;;;9.20;99.90;;;;;;5055139;28;19943;-81
2021/12/17 15:53:57;;;;;;;10.85;6.35;;;9.10;99.90;;;;;;5055127;28;20419;-82
2021/12/17 15:56:23;;;;;;;;;;;9.10;99.90;;;;;;5055457;28;20041;-82
2021/12/17 15:58:49;;;;;;;13.07;7.55;;;9.10;99.90;;;;;;5071804;28;20435;-82
2021/12/17 16:01:14;;;;;;;11.73;7.45;;;9.10;99.90;;;;;;5072551;28;20056;-82
2021/12/17 16:03:42;;;;;;;14.68;10.50;;;9.10;99.90;;;;;;5071938;28;20036;-82